Portknockie, United Kingdom
Current Conditions -  °F | °C
As of 8:50 PM on Friday 24 Oct 2014 (Local Time) from EGQS Reporting Station
Few Clouds Few Clouds  
Wind Chill: 43°   Ceiling: Unl
Heat Index: 48°   Visibility: 6mi
Dew Point: 41°   Wind: 13mph
Humidity: 76%   Direction: 210°SSW
Pressure: 29.59"   Gusts: NA
Location:  57.7°N, 2.86°W
Report Text: EGQS 241950Z 21011KT 9999 FEW045 09/05 Q1002 BLU
Loading
Personal Weather Stations






























Interactive Weather Map New forecast layout! Learn more

10-Day Weather Forecast

Advertisements
Track Severe Weather on mobile